Pride Of Kent — MQCJ2 — position and weather

sailwx.info

Track history (hours):
 
Tides and Currents Weather Stations Pressure Air Temp Water Temp Dewpoint Dewpoint Depression Visibility Wind Speed Wind Dir Waves Ship Positions

Pride Of Kent

Operator: P & O Ferries

Last reported at 2016-Jun-25 01:33 UTC. Time now 2016-Jun-25 01:44 UTC.
Position N 50°58' E 001°51'.

Length 180 m; draft 6 m.

Type: Passenger vessel. MMSI: 232009000.

Date/timePositionNaut miles runAvg speedWind from/ knotsBaromVisibWave heightAir tempDewpointWater temp
2016-Jun-25 01:33N 50°58' E 001°51'1413.9
2016-Jun-25 00:33N 51°02' E 001°30'8 7.6
2016-Jun-24 23:30N 51°07' E 001°20'7 8.0
2016-Jun-24 22:33N 51°04' E 001°31'1414.1
2016-Jun-24 21:34N 50°58' E 001°51'1 0.9
2016-Jun-24 20:34N 50°58' E 001°50'1717.3
2016-Jun-24 19:33N 51°05' E 001°24'3 3.4
2016-Jun-24 18:32N 51°07' E 001°20'1211.9
2016-Jun-24 17:34N 51°02' E 001°37'1010.0
2016-Jun-24 16:33N 50°58' E 001°51'6 5.9
2016-Jun-24 15:33N 50°59' E 001°42'1613.4
2016-Jun-24 14:21N 51°07' E 001°20'3 4.1
2016-Jun-24 13:33N 51°07' E 001°25'1717.4
2016-Jun-24 12:33N 50°58' E 001°49'1 1.1
2016-Jun-24 11:33N 50°58' E 001°51'1515.5
2016-Jun-24 10:34N 51°04' E 001°28'6 6.1
2016-Jun-24 09:31N 51°07' E 001°20'1111.0
2016-Jun-24 08:33N 51°02' E 001°34'1111.1
2016-Jun-24 07:33N 50°58' E 001°51'22 6.8
2016-Jun-24 04:22N 51°07' E 001°20'1113.5
2016-Jun-24 03:34N 51°04' E 001°37'11 9.4
2016-Jun-24 02:24N 50°58' E 001°51'4 4.4
2016-Jun-24 01:33N 50°58' E 001°45'18 9.2
2016-Jun-23 23:33N 51°07' E 001°20'1212.4
2016-Jun-23 22:33N 51°02' E 001°38'9 9.1
2016-Jun-23 21:34N 50°58' E 001°51'7 7.4
2016-Jun-23 20:33N 50°58' E 001°39'1510.7
2016-Jun-23 19:10N 51°07' E 001°20'0 0.2
2016-Jun-23 18:33N 51°07' E 001°20'1818.2
2016-Jun-23 17:33N 50°58' E 001°45'4 3.7
2016-Jun-23 16:33N 50°58' E 001°51'1211.7
2016-Jun-23 15:33N 51°02' E 001°34'10 9.9
2016-Jun-23 14:33N 51°07' E 001°20'8 8.1
2016-Jun-23 13:33N 51°03' E 001°31'1413.6
2016-Jun-23 12:33N 50°58' E 001°51'3 2.6
2016-Jun-23 11:33N 50°58' E 001°47'1817.8
2016-Jun-23 10:34N 51°06' E 001°22'2 1.6
2016-Jun-23 09:31N 51°07' E 001°20'1616.6
2016-Jun-23 08:34N 50°59' E 001°41'6 6.0
2016-Jun-23 07:33N 50°58' E 001°51'22 7.1
2016-Jun-23 04:31N 51°07' E 001°20'1111.6
2016-Jun-23 03:34N 51°04' E 001°37'1110.6
2016-Jun-23 02:33N 50°58' E 001°51'0 0.0
2016-Jun-23 01:33N 50°58' E 001°51'1414.4
2016-Jun-23 00:33N 51°03' E 001°30'7 7.2
2016-Jun-22 23:32N 51°07' E 001°20'1010.0
2016-Jun-22 22:33N 51°02' E 001°34'1211.8
2016-Jun-22 21:33N 50°58' E 001°51'5 5.1
2016-Jun-22 20:34N 50°58' E 001°43'1715.8
2016-Jun-22 19:28N 51°07' E 001°20'0 0.1
2016-Jun-22 18:33N 51°07' E 001°20'1717.1
2016-Jun-22 17:34N 50°59' E 001°44'5 4.7
2016-Jun-22 16:34N 50°58' E 001°51'1111.1
2016-Jun-22 15:33N 51°01' E 001°34'11 8.2
2016-Jun-22 14:14N 51°07' E 001°20'6 9.0
2016-Jun-22 13:33N 51°05' E 001°29'1515.5
2016-Jun-22 12:33N 50°58' E 001°51'1 1.2
2016-Jun-22 11:34N 50°58' E 001°49'1716.8
2016-Jun-22 10:33N 51°06' E 001°25'4 3.1
2016-Jun-22 09:22N 51°07' E 001°20'1113.5
2016-Jun-22 08:34N 51°05' E 001°37'1111.0
2016-Jun-22 07:32N 50°58' E 001°51'5 4.6
2016-Jun-22 06:34N 50°58' E 001°44'1817.6
2016-Jun-22 05:33N 51°07' E 001°20'0 0.0
2016-Jun-22 04:09N 51°07' E 001°20'812.7
2016-Jun-22 03:33N 51°06' E 001°32'1414.4
2016-Jun-22 02:33N 50°58' E 001°51'0 0.0
2016-Jun-22 01:33N 50°58' E 001°51'1414.2
2016-Jun-22 00:33N 51°04' E 001°30'7 7.0
2016-Jun-21 23:29N 51°07' E 001°20'1112.4
2016-Jun-21 22:34N 51°02' E 001°36'1010.1
2016-Jun-21 21:33N 50°58' E 001°51'6 5.5
2016-Jun-21 20:33N 50°58' E 001°42'1716.4
2016-Jun-21 19:32N 51°07' E 001°20'0 0.2
2016-Jun-21 18:33N 51°07' E 001°20'1918.7
2016-Jun-21 17:33N 50°58' E 001°46'3 2.9
2016-Jun-21 16:34N 50°58' E 001°51'1312.9
2016-Jun-21 15:33N 51°02' E 001°31'9 8.8
2016-Jun-21 14:33N 51°07' E 001°20'8 7.9
2016-Jun-21 13:33N 51°05' E 001°32'1414.0
2016-Jun-21 12:33N 50°58' E 001°51'1 1.4
2016-Jun-21 11:33N 50°58' E 001°49'1616.2
2016-Jun-21 10:33N 51°05' E 001°26'4 3.9
2016-Jun-21 09:30N 51°07' E 001°20'1515.6
2016-Jun-21 08:33N 51°00' E 001°40'7 7.1
2016-Jun-21 07:34N 50°58' E 001°51'21 7.1
2016-Jun-21 04:33N 51°07' E 001°20'1414.2
2016-Jun-21 03:34N 51°00' E 001°40'7 7.4
2016-Jun-21 02:33N 50°58' E 001°51'1111.0
2016-Jun-21 01:33N 51°00' E 001°34'11 9.8
2016-Jun-21 00:25N 51°07' E 001°20'1011.1
2016-Jun-20 23:33N 51°03' E 001°33'1212.0
2016-Jun-20 22:33N 50°58' E 001°51'0 0.0
2016-Jun-20 21:33N 50°58' E 001°51'7 7.4
2016-Jun-20 20:34N 50°59' E 001°39'1514.7
2016-Jun-20 19:32N 51°07' E 001°20'0 0.2
2016-Jun-20 18:34N 51°07' E 001°20'1918.9
2016-Jun-20 17:34N 50°58' E 001°46'3 2.8
2016-Jun-20 16:33N 50°58' E 001°51'1515.1
2016-Jun-20 15:33N 51°04' E 001°29'7 6.5
2016-Jun-20 14:33N 51°07' E 001°20'6 6.5
2016-Jun-20 13:33N 51°05' E 001°30'1515.5
2016-Jun-20 12:33N 50°58' E 001°52'0 0.1
2016-Jun-20 11:33N 50°58' E 001°51'1817.9
2016-Jun-20 10:34N 51°05' E 001°25'4 4.0
2016-Jun-20 09:33N 51°07' E 001°20'1212.4
2016-Jun-20 08:33N 51°03' E 001°38'9 9.3
2016-Jun-20 07:34N 50°58' E 001°51'5 4.7
2016-Jun-20 06:34N 50°58' E 001°44'18 8.4
2016-Jun-20 04:29N 51°07' E 001°20'5 5.9
2016-Jun-20 03:33N 51°05' E 001°28'1616.1
2016-Jun-20 02:33N 50°58' E 001°51'0 0.0
2016-Jun-20 01:33N 50°58' E 001°51'1717.1
2016-Jun-20 00:33N 51°06' E 001°27'5 3.3
2016-Jun-19 23:11N 51°07' E 001°20'710.9
2016-Jun-19 22:34N 51°05' E 001°30'1514.6
2016-Jun-19 21:34N 50°58' E 001°51'0 0.2
2016-Jun-19 20:33N 50°58' E 001°51'1615.9
2016-Jun-19 19:33N 51°04' E 001°28'6 4.5
2016-Jun-19 18:17N 51°07' E 001°20'913.0
2016-Jun-19 17:34N 51°03' E 001°33'1212.1
2016-Jun-19 16:33N 50°58' E 001°51'3 3.5
2016-Jun-19 15:34N 50°58' E 001°45'1918.5
2016-Jun-19 14:33N 51°07' E 001°20'0 0.4
2016-Jun-19 13:33N 51°07' E 001°21'1818.3
2016-Jun-19 12:33N 50°58' E 001°46'3 3.3
2016-Jun-19 11:33N 50°58' E 001°51'1313.2
2016-Jun-19 10:33N 51°02' E 001°31'9 7.2
2016-Jun-19 09:21N 51°07' E 001°20'1113.5
2016-Jun-19 08:34N 51°02' E 001°35'1111.0
2016-Jun-19 07:34N 50°58' E 001°51'8 7.5
2016-Jun-19 06:33N 50°58' E 001°39'15 7.4
2016-Jun-19 04:32N 51°07' E 001°20'5 5.2
2016-Jun-19 03:33N 51°06' E 001°28'1716.6
2016-Jun-19 02:33N 50°58' E 001°51'0 0.0
2016-Jun-19 01:33N 50°58' E 001°51'8 7.8
2016-Jun-19 00:33N 51°00' E 001°39'1412.8
2016-Jun-18 23:28N 51°07' E 001°20'7 7.3
2016-Jun-18 22:34N 51°06' E 001°30'1515.1
2016-Jun-18 21:34N 50°58' E 001°51'0 0.1
2016-Jun-18 20:32N 50°58' E 001°51'1515.3
2016-Jun-18 19:33N 51°03' E 001°29'7 4.6
2016-Jun-18 18:07N 51°07' E 001°20'915.8
2016-Jun-18 17:34N 51°03' E 001°33'1312.5
2016-Jun-18 16:33N 50°58' E 001°51'5 4.8
2016-Jun-18 15:33N 50°58' E 001°43'15 7.7
2016-Jun-18 13:34N 51°07' E 001°24'1817.9
2016-Jun-18 12:34N 50°58' E 001°49'1 1.4
2016-Jun-18 11:33N 50°58' E 001°51'1616.0
2016-Jun-18 10:34N 51°04' E 001°28'6 5.4
2016-Jun-18 09:30N 51°07' E 001°20'1515.6
2016-Jun-18 08:33N 50°60' E 001°40'7 7.2
2016-Jun-18 07:33N 50°58' E 001°51'5 5.2
2016-Jun-18 06:33N 50°58' E 001°43'17 8.6
2016-Jun-18 04:33N 51°07' E 001°20'1717.5
2016-Jun-18 03:33N 50°58' E 001°44'4 4.4
2016-Jun-18 02:34N 50°58' E 001°51'7 6.5
2016-Jun-18 01:33N 50°57' E 001°41'6 6.5
2016-Jun-18 00:33N 51°00' E 001°32'10 8.9
2016-Jun-17 23:25N 51°07' E 001°20'7 8.4
2016-Jun-17 22:34N 51°05' E 001°31'1514.5
2016-Jun-17 21:33N 50°58' E 001°51'0 0.0
2016-Jun-17 20:33N 50°58' E 001°51'1716.9
2016-Jun-17 19:33N 51°04' E 001°26'5 4.4
2016-Jun-17 18:26N 51°07' E 001°20'1315.3
2016-Jun-17 17:33N 51°00' E 001°38'9 8.5
2016-Jun-17 16:33N 50°58' E 001°51'1010.1
2016-Jun-17 15:33N 50°57' E 001°35'11 5.4
2016-Jun-17 13:33N 51°06' E 001°26'1817.9
2016-Jun-17 12:34N 50°58' E 001°51'0 0.1
2016-Jun-17 11:32N 50°58' E 001°51'1616.0
2016-Jun-17 10:33N 51°04' E 001°28'6 5.0
2016-Jun-17 09:24N 51°07' E 001°20'1113.0
2016-Jun-17 08:34N 51°03' E 001°36'1110.6
2016-Jun-17 07:33N 50°58' E 001°51'4 3.8
2016-Jun-17 06:34N 50°58' E 001°45'1818.2
2016-Jun-17 05:33N 51°07' E 001°20'0 0.0
2016-Jun-17 04:27N 51°07' E 001°20'1516.8
2016-Jun-17 03:34N 50°60' E 001°41'7 6.7
2016-Jun-17 02:33N 50°58' E 001°51'0 0.0
2016-Jun-17 01:33N 50°58' E 001°51'1313.5
2016-Jun-17 00:34N 51°03' E 001°31'8 8.0
2016-Jun-16 23:32N 51°07' E 001°20'8 8.1
2016-Jun-16 22:34N 51°05' E 001°32'1413.0
2016-Jun-16 21:30N 50°58' E 001°51'1 1.2
2016-Jun-16 20:33N 50°58' E 001°49'1716.6
2016-Jun-16 19:33N 51°05' E 001°25'4 3.5
2016-Jun-16 18:26N 51°07' E 001°20'1315.1
2016-Jun-16 17:33N 51°01' E 001°38'8 8.5
2016-Jun-16 16:33N 50°58' E 001°51'9 9.3
2016-Jun-16 15:33N 50°60' E 001°37'1312.4
2016-Jun-16 14:31N 51°07' E 001°20'6 6.5
2016-Jun-16 13:33N 51°07' E 001°30'1615.8
2016-Jun-16 12:33N 50°58' E 001°51'2 2.3
2016-Jun-16 11:33N 50°58' E 001°47'19 9.7
2016-Jun-16 09:34N 51°07' E 001°20'1818.0
2016-Jun-16 08:34N 50°58' E 001°45'4 3.7
2016-Jun-16 07:33N 50°58' E 001°51'1313.3
2016-Jun-16 06:33N 51°02' E 001°31'9 3.8
2016-Jun-16 04:16N 51°07' E 001°20'6 8.7
2016-Jun-16 03:33N 51°05' E 001°29'1515.2
2016-Jun-16 02:33N 50°58' E 001°51'0 0.0
2016-Jun-16 01:33N 50°58' E 001°51'1111.5
2016-Jun-16 00:33N 51°01' E 001°34'10 9.7
2016-Jun-15 23:29N 51°07' E 001°20'910.1
2016-Jun-15 22:34N 51°04' E 001°34'1211.8
2016-Jun-15 21:31N 50°58' E 001°51'5 5.4
2016-Jun-15 20:34N 50°58' E 001°43'1716.6
2016-Jun-15 19:32N 51°07' E 001°20'0 0.4
2016-Jun-15 18:33N 51°07' E 001°21'1818.4
2016-Jun-15 17:33N 50°58' E 001°46'3 3.1
2016-Jun-15 16:33N 50°58' E 001°51'1111.2
2016-Jun-15 15:33N 51°01' E 001°34'1110.1
2016-Jun-15 14:29N 51°07' E 001°20'7 7.8
2016-Jun-15 13:33N 51°05' E 001°31'1514.5
2016-Jun-15 12:34N 50°58' E 001°51'4 4.0
2016-Jun-15 11:33N 50°58' E 001°45'1817.8
2016-Jun-15 10:32N 51°07' E 001°20'0 0.1
2016-Jun-15 09:15N 51°07' E 001°20'1115.8
2016-Jun-15 08:34N 51°03' E 001°36'11 9.7
2016-Jun-15 07:28N 50°58' E 001°51'5 5.2
2016-Jun-15 06:33N 50°58' E 001°43'17 7.0
2016-Jun-15 04:04N 51°07' E 001°20'611.4
2016-Jun-15 03:34N 51°05' E 001°29'1615.6
2016-Jun-15 02:34N 50°58' E 001°51'0 0.2
2016-Jun-15 01:33N 50°58' E 001°51'  
Track history (hours):
 
Tides and Currents Weather Stations Pressure Air Temp Water Temp Dewpoint Dewpoint Depression Visibility Wind Speed Wind Dir Waves Ship Positions

Pride Of Kent

Operator: P & O Ferries

Last reported at 2016-Jun-25 01:33 UTC. Time now 2016-Jun-25 01:44 UTC.
Position N 50°58' E 001°51'.

Length 180 m; draft 6 m.

Type: Passenger vessel. MMSI: 232009000.

Date/timePositionNaut miles runAvg speedWind from/ knotsBaromVisibWave heightAir tempDewpointWater temp
2016-Jun-25 01:33N 50°58' E 001°51'1413.9
2016-Jun-25 00:33N 51°02' E 001°30'8 7.6
2016-Jun-24 23:30N 51°07' E 001°20'7 8.0
2016-Jun-24 22:33N 51°04' E 001°31'1414.1
2016-Jun-24 21:34N 50°58' E 001°51'1 0.9
2016-Jun-24 20:34N 50°58' E 001°50'1717.3
2016-Jun-24 19:33N 51°05' E 001°24'3 3.4
2016-Jun-24 18:32N 51°07' E 001°20'1211.9
2016-Jun-24 17:34N 51°02' E 001°37'1010.0
2016-Jun-24 16:33N 50°58' E 001°51'6 5.9
2016-Jun-24 15:33N 50°59' E 001°42'1613.4
2016-Jun-24 14:21N 51°07' E 001°20'3 4.1
2016-Jun-24 13:33N 51°07' E 001°25'1717.4
2016-Jun-24 12:33N 50°58' E 001°49'1 1.1
2016-Jun-24 11:33N 50°58' E 001°51'1515.5
2016-Jun-24 10:34N 51°04' E 001°28'6 6.1
2016-Jun-24 09:31N 51°07' E 001°20'1111.0
2016-Jun-24 08:33N 51°02' E 001°34'1111.1
2016-Jun-24 07:33N 50°58' E 001°51'22 6.8
2016-Jun-24 04:22N 51°07' E 001°20'1113.5
2016-Jun-24 03:34N 51°04' E 001°37'11 9.4
2016-Jun-24 02:24N 50°58' E 001°51'4 4.4
2016-Jun-24 01:33N 50°58' E 001°45'18 9.2
2016-Jun-23 23:33N 51°07' E 001°20'1212.4
2016-Jun-23 22:33N 51°02' E 001°38'9 9.1
2016-Jun-23 21:34N 50°58' E 001°51'7 7.4
2016-Jun-23 20:33N 50°58' E 001°39'1510.7
2016-Jun-23 19:10N 51°07' E 001°20'0 0.2
2016-Jun-23 18:33N 51°07' E 001°20'1818.2
2016-Jun-23 17:33N 50°58' E 001°45'4 3.7
2016-Jun-23 16:33N 50°58' E 001°51'1211.7
2016-Jun-23 15:33N 51°02' E 001°34'10 9.9
2016-Jun-23 14:33N 51°07' E 001°20'8 8.1
2016-Jun-23 13:33N 51°03' E 001°31'1413.6
2016-Jun-23 12:33N 50°58' E 001°51'3 2.6
2016-Jun-23 11:33N 50°58' E 001°47'1817.8
2016-Jun-23 10:34N 51°06' E 001°22'2 1.6
2016-Jun-23 09:31N 51°07' E 001°20'1616.6
2016-Jun-23 08:34N 50°59' E 001°41'6 6.0
2016-Jun-23 07:33N 50°58' E 001°51'22 7.1
2016-Jun-23 04:31N 51°07' E 001°20'1111.6
2016-Jun-23 03:34N 51°04' E 001°37'1110.6
2016-Jun-23 02:33N 50°58' E 001°51'0 0.0
2016-Jun-23 01:33N 50°58' E 001°51'1414.4
2016-Jun-23 00:33N 51°03' E 001°30'7 7.2
2016-Jun-22 23:32N 51°07' E 001°20'1010.0
2016-Jun-22 22:33N 51°02' E 001°34'1211.8
2016-Jun-22 21:33N 50°58' E 001°51'5 5.1
2016-Jun-22 20:34N 50°58' E 001°43'1715.8
2016-Jun-22 19:28N 51°07' E 001°20'0 0.1
2016-Jun-22 18:33N 51°07' E 001°20'1717.1
2016-Jun-22 17:34N 50°59' E 001°44'5 4.7
2016-Jun-22 16:34N 50°58' E 001°51'1111.1
2016-Jun-22 15:33N 51°01' E 001°34'11 8.2
2016-Jun-22 14:14N 51°07' E 001°20'6 9.0
2016-Jun-22 13:33N 51°05' E 001°29'1515.5
2016-Jun-22 12:33N 50°58' E 001°51'1 1.2
2016-Jun-22 11:34N 50°58' E 001°49'1716.8
2016-Jun-22 10:33N 51°06' E 001°25'4 3.1
2016-Jun-22 09:22N 51°07' E 001°20'1113.5
2016-Jun-22 08:34N 51°05' E 001°37'1111.0
2016-Jun-22 07:32N 50°58' E 001°51'5 4.6
2016-Jun-22 06:34N 50°58' E 001°44'1817.6
2016-Jun-22 05:33N 51°07' E 001°20'0 0.0
2016-Jun-22 04:09N 51°07' E 001°20'812.7
2016-Jun-22 03:33N 51°06' E 001°32'1414.4
2016-Jun-22 02:33N 50°58' E 001°51'0 0.0
2016-Jun-22 01:33N 50°58' E 001°51'1414.2
2016-Jun-22 00:33N 51°04' E 001°30'7 7.0
2016-Jun-21 23:29N 51°07' E 001°20'1112.4
2016-Jun-21 22:34N 51°02' E 001°36'1010.1
2016-Jun-21 21:33N 50°58' E 001°51'6 5.5
2016-Jun-21 20:33N 50°58' E 001°42'1716.4
2016-Jun-21 19:32N 51°07' E 001°20'0 0.2
2016-Jun-21 18:33N 51°07' E 001°20'1918.7
2016-Jun-21 17:33N 50°58' E 001°46'3 2.9
2016-Jun-21 16:34N 50°58' E 001°51'1312.9
2016-Jun-21 15:33N 51°02' E 001°31'9 8.8
2016-Jun-21 14:33N 51°07' E 001°20'8 7.9
2016-Jun-21 13:33N 51°05' E 001°32'1414.0
2016-Jun-21 12:33N 50°58' E 001°51'1 1.4
2016-Jun-21 11:33N 50°58' E 001°49'1616.2
2016-Jun-21 10:33N 51°05' E 001°26'4 3.9
2016-Jun-21 09:30N 51°07' E 001°20'1515.6
2016-Jun-21 08:33N 51°00' E 001°40'7 7.1
2016-Jun-21 07:34N 50°58' E 001°51'21 7.1
2016-Jun-21 04:33N 51°07' E 001°20'1414.2
2016-Jun-21 03:34N 51°00' E 001°40'7 7.4
2016-Jun-21 02:33N 50°58' E 001°51'1111.0
2016-Jun-21 01:33N 51°00' E 001°34'11 9.8
2016-Jun-21 00:25N 51°07' E 001°20'1011.1
2016-Jun-20 23:33N 51°03' E 001°33'1212.0
2016-Jun-20 22:33N 50°58' E 001°51'0 0.0
2016-Jun-20 21:33N 50°58' E 001°51'7 7.4
2016-Jun-20 20:34N 50°59' E 001°39'1514.7
2016-Jun-20 19:32N 51°07' E 001°20'0 0.2
2016-Jun-20 18:34N 51°07' E 001°20'1918.9
2016-Jun-20 17:34N 50°58' E 001°46'3 2.8
2016-Jun-20 16:33N 50°58' E 001°51'1515.1
2016-Jun-20 15:33N 51°04' E 001°29'7 6.5
2016-Jun-20 14:33N 51°07' E 001°20'6 6.5
2016-Jun-20 13:33N 51°05' E 001°30'1515.5
2016-Jun-20 12:33N 50°58' E 001°52'0 0.1
2016-Jun-20 11:33N 50°58' E 001°51'1817.9
2016-Jun-20 10:34N 51°05' E 001°25'4 4.0
2016-Jun-20 09:33N 51°07' E 001°20'1212.4
2016-Jun-20 08:33N 51°03' E 001°38'9 9.3
2016-Jun-20 07:34N 50°58' E 001°51'5 4.7
2016-Jun-20 06:34N 50°58' E 001°44'18 8.4
2016-Jun-20 04:29N 51°07' E 001°20'5 5.9
2016-Jun-20 03:33N 51°05' E 001°28'1616.1
2016-Jun-20 02:33N 50°58' E 001°51'0 0.0
2016-Jun-20 01:33N 50°58' E 001°51'1717.1
2016-Jun-20 00:33N 51°06' E 001°27'5 3.3
2016-Jun-19 23:11N 51°07' E 001°20'710.9
2016-Jun-19 22:34N 51°05' E 001°30'1514.6
2016-Jun-19 21:34N 50°58' E 001°51'0 0.2
2016-Jun-19 20:33N 50°58' E 001°51'1615.9
2016-Jun-19 19:33N 51°04' E 001°28'6 4.5
2016-Jun-19 18:17N 51°07' E 001°20'913.0
2016-Jun-19 17:34N 51°03' E 001°33'1212.1
2016-Jun-19 16:33N 50°58' E 001°51'3 3.5
2016-Jun-19 15:34N 50°58' E 001°45'1918.5
2016-Jun-19 14:33N 51°07' E 001°20'0 0.4
2016-Jun-19 13:33N 51°07' E 001°21'1818.3
2016-Jun-19 12:33N 50°58' E 001°46'3 3.3
2016-Jun-19 11:33N 50°58' E 001°51'1313.2
2016-Jun-19 10:33N 51°02' E 001°31'9 7.2
2016-Jun-19 09:21N 51°07' E 001°20'1113.5
2016-Jun-19 08:34N 51°02' E 001°35'1111.0
2016-Jun-19 07:34N 50°58' E 001°51'8 7.5
2016-Jun-19 06:33N 50°58' E 001°39'15 7.4
2016-Jun-19 04:32N 51°07' E 001°20'5 5.2
2016-Jun-19 03:33N 51°06' E 001°28'1716.6
2016-Jun-19 02:33N 50°58' E 001°51'0 0.0
2016-Jun-19 01:33N 50°58' E 001°51'8 7.8
2016-Jun-19 00:33N 51°00' E 001°39'1412.8
2016-Jun-18 23:28N 51°07' E 001°20'7 7.3
2016-Jun-18 22:34N 51°06' E 001°30'1515.1
2016-Jun-18 21:34N 50°58' E 001°51'0 0.1
2016-Jun-18 20:32N 50°58' E 001°51'1515.3
2016-Jun-18 19:33N 51°03' E 001°29'7 4.6
2016-Jun-18 18:07N 51°07' E 001°20'915.8
2016-Jun-18 17:34N 51°03' E 001°33'1312.5
2016-Jun-18 16:33N 50°58' E 001°51'5 4.8
2016-Jun-18 15:33N 50°58' E 001°43'15 7.7
2016-Jun-18 13:34N 51°07' E 001°24'1817.9
2016-Jun-18 12:34N 50°58' E 001°49'1 1.4
2016-Jun-18 11:33N 50°58' E 001°51'1616.0
2016-Jun-18 10:34N 51°04' E 001°28'6 5.4
2016-Jun-18 09:30N 51°07' E 001°20'1515.6
2016-Jun-18 08:33N 50°60' E 001°40'7 7.2
2016-Jun-18 07:33N 50°58' E 001°51'5 5.2
2016-Jun-18 06:33N 50°58' E 001°43'17 8.6
2016-Jun-18 04:33N 51°07' E 001°20'1717.5
2016-Jun-18 03:33N 50°58' E 001°44'4 4.4
2016-Jun-18 02:34N 50°58' E 001°51'7 6.5
2016-Jun-18 01:33N 50°57' E 001°41'6 6.5
2016-Jun-18 00:33N 51°00' E 001°32'10 8.9
2016-Jun-17 23:25N 51°07' E 001°20'7 8.4
2016-Jun-17 22:34N 51°05' E 001°31'1514.5
2016-Jun-17 21:33N 50°58' E 001°51'0 0.0
2016-Jun-17 20:33N 50°58' E 001°51'1716.9
2016-Jun-17 19:33N 51°04' E 001°26'5 4.4
2016-Jun-17 18:26N 51°07' E 001°20'1315.3
2016-Jun-17 17:33N 51°00' E 001°38'9 8.5
2016-Jun-17 16:33N 50°58' E 001°51'1010.1
2016-Jun-17 15:33N 50°57' E 001°35'11 5.4
2016-Jun-17 13:33N 51°06' E 001°26'1817.9
2016-Jun-17 12:34N 50°58' E 001°51'0 0.1
2016-Jun-17 11:32N 50°58' E 001°51'1616.0
2016-Jun-17 10:33N 51°04' E 001°28'6 5.0
2016-Jun-17 09:24N 51°07' E 001°20'1113.0
2016-Jun-17 08:34N 51°03' E 001°36'1110.6
2016-Jun-17 07:33N 50°58' E 001°51'4 3.8
2016-Jun-17 06:34N 50°58' E 001°45'1818.2
2016-Jun-17 05:33N 51°07' E 001°20'0 0.0
2016-Jun-17 04:27N 51°07' E 001°20'1516.8
2016-Jun-17 03:34N 50°60' E 001°41'7 6.7
2016-Jun-17 02:33N 50°58' E 001°51'0 0.0
2016-Jun-17 01:33N 50°58' E 001°51'1313.5
2016-Jun-17 00:34N 51°03' E 001°31'8 8.0
2016-Jun-16 23:32N 51°07' E 001°20'8 8.1
2016-Jun-16 22:34N 51°05' E 001°32'1413.0
2016-Jun-16 21:30N 50°58' E 001°51'1 1.2
2016-Jun-16 20:33N 50°58' E 001°49'1716.6
2016-Jun-16 19:33N 51°05' E 001°25'4 3.5
2016-Jun-16 18:26N 51°07' E 001°20'1315.1
2016-Jun-16 17:33N 51°01' E 001°38'8 8.5
2016-Jun-16 16:33N 50°58' E 001°51'9 9.3
2016-Jun-16 15:33N 50°60' E 001°37'1312.4
2016-Jun-16 14:31N 51°07' E 001°20'6 6.5
2016-Jun-16 13:33N 51°07' E 001°30'1615.8
2016-Jun-16 12:33N 50°58' E 001°51'2 2.3
2016-Jun-16 11:33N 50°58' E 001°47'19 9.7
2016-Jun-16 09:34N 51°07' E 001°20'1818.0
2016-Jun-16 08:34N 50°58' E 001°45'4 3.7
2016-Jun-16 07:33N 50°58' E 001°51'1313.3
2016-Jun-16 06:33N 51°02' E 001°31'9 3.8
2016-Jun-16 04:16N 51°07' E 001°20'6 8.7
2016-Jun-16 03:33N 51°05' E 001°29'1515.2
2016-Jun-16 02:33N 50°58' E 001°51'0 0.0
2016-Jun-16 01:33N 50°58' E 001°51'1111.5
2016-Jun-16 00:33N 51°01' E 001°34'10 9.7
2016-Jun-15 23:29N 51°07' E 001°20'910.1
2016-Jun-15 22:34N 51°04' E 001°34'1211.8
2016-Jun-15 21:31N 50°58' E 001°51'5 5.4
2016-Jun-15 20:34N 50°58' E 001°43'1716.6
2016-Jun-15 19:32N 51°07' E 001°20'0 0.4
2016-Jun-15 18:33N 51°07' E 001°21'1818.4
2016-Jun-15 17:33N 50°58' E 001°46'3 3.1
2016-Jun-15 16:33N 50°58' E 001°51'1111.2
2016-Jun-15 15:33N 51°01' E 001°34'1110.1
2016-Jun-15 14:29N 51°07' E 001°20'7 7.8
2016-Jun-15 13:33N 51°05' E 001°31'1514.5
2016-Jun-15 12:34N 50°58' E 001°51'4 4.0
2016-Jun-15 11:33N 50°58' E 001°45'1817.8
2016-Jun-15 10:32N 51°07' E 001°20'0 0.1
2016-Jun-15 09:15N 51°07' E 001°20'1115.8
2016-Jun-15 08:34N 51°03' E 001°36'11 9.7
2016-Jun-15 07:28N 50°58' E 001°51'5 5.2
2016-Jun-15 06:33N 50°58' E 001°43'17 7.0
2016-Jun-15 04:04N 51°07' E 001°20'611.4
2016-Jun-15 03:34N 51°05' E 001°29'1615.6
2016-Jun-15 02:34N 50°58' E 001°51'0 0.2
2016-Jun-15 01:33N 50°58' E 001°51'  

Dump ship's entire track history